createdAt,value
2024-02-19T00:02:22.634Z,92.10
2024-02-19T00:04:49.656Z,92.20
2024-02-19T00:07:19.320Z,92.40
2024-02-19T00:09:46.578Z,92.50
2024-02-19T00:12:13.993Z,92.80
2024-02-19T00:14:40.978Z,92.90
2024-02-19T00:17:09.170Z,92.90
2024-02-19T00:19:36.271Z,93.00
2024-02-19T00:22:03.229Z,93.20
2024-02-19T00:24:30.123Z,93.20
2024-02-19T00:26:57.052Z,93.30
2024-02-19T00:29:23.898Z,93.40
2024-02-19T00:31:50.710Z,93.40
2024-02-19T00:34:17.576Z,93.50
2024-02-19T00:36:44.452Z,93.50
2024-02-19T00:39:11.324Z,93.50
2024-02-19T00:41:38.250Z,93.70
2024-02-19T00:44:05.335Z,93.70
2024-02-19T00:46:32.888Z,93.70
2024-02-19T00:48:59.784Z,93.80
2024-02-19T00:51:26.630Z,93.80
2024-02-19T00:53:53.428Z,93.80
2024-02-19T00:56:20.245Z,93.90
2024-02-19T00:58:47.048Z,93.90
2024-02-19T01:01:13.892Z,93.90
2024-02-19T01:03:42.082Z,93.90
2024-02-19T01:06:09.218Z,93.90
2024-02-19T01:08:36.057Z,93.90
2024-02-19T01:11:02.926Z,93.80
2024-02-19T01:13:29.737Z,93.80
2024-02-19T01:15:56.571Z,93.80
2024-02-19T01:18:23.527Z,93.80
2024-02-19T01:20:50.462Z,93.80
2024-02-19T01:23:18.116Z,93.90
2024-02-19T01:25:45.074Z,93.90
2024-02-19T01:28:11.954Z,94.00
2024-02-19T01:30:38.951Z,94.00
2024-02-19T01:33:05.995Z,94.00
2024-02-19T01:35:33.982Z,94.00
2024-02-19T01:38:00.875Z,94.20
2024-02-19T01:40:27.693Z,94.20
2024-02-19T01:43:05.785Z,94.00
2024-02-19T01:45:32.718Z,93.70
2024-02-19T01:48:00.550Z,93.50
2024-02-19T01:50:31.372Z,93.30
2024-02-19T01:52:59.836Z,93.30
2024-02-19T01:55:27.523Z,93.10
2024-02-19T01:57:55.762Z,93.10
2024-02-19T02:00:23.479Z,93.00
2024-02-19T02:02:50.554Z,92.90
2024-02-19T02:05:17.434Z,92.90
2024-02-19T02:07:45.837Z,92.80
2024-02-19T02:10:12.941Z,92.70
2024-02-19T02:12:39.831Z,92.80
2024-02-19T02:15:07.075Z,92.70
2024-02-19T02:17:34.125Z,92.60
2024-02-19T02:20:01.210Z,92.50
2024-02-19T02:22:28.614Z,92.40
2024-02-19T02:24:56.314Z,92.20
2024-02-19T02:27:23.307Z,92.30
2024-02-19T02:29:50.060Z,92.10
2024-02-19T02:32:16.877Z,92.10
2024-02-19T02:34:43.676Z,92.00
2024-02-19T02:37:10.515Z,91.80
2024-02-19T02:39:37.418Z,91.90
2024-02-19T02:42:05.865Z,92.00
2024-02-19T02:44:32.872Z,92.00
2024-02-19T02:46:59.746Z,91.80
2024-02-19T02:49:26.920Z,91.90
2024-02-19T02:51:53.885Z,92.20
2024-02-19T02:54:20.671Z,92.40
2024-02-19T02:56:48.352Z,92.60
2024-02-19T02:59:15.202Z,92.60
2024-02-19T03:01:42.097Z,92.60
2024-02-19T03:04:09.217Z,92.60
2024-02-19T03:06:36.176Z,92.70
2024-02-19T03:09:03.124Z,92.50
2024-02-19T03:11:32.130Z,92.40
2024-02-19T03:13:58.987Z,92.50
2024-02-19T03:16:25.782Z,92.60
2024-02-19T03:18:54.699Z,92.70
2024-02-19T03:21:22.034Z,92.90
2024-02-19T03:23:53.159Z,93.20
2024-02-19T03:26:37.514Z,93.20
2024-02-19T03:29:13.341Z,93.40
2024-02-19T03:31:41.182Z,93.40
2024-02-19T03:34:08.717Z,93.30
2024-02-19T03:36:35.660Z,93.30
2024-02-19T03:39:05.209Z,93.10
2024-02-19T03:41:32.307Z,93.10
2024-02-19T03:43:59.965Z,93.10
2024-02-19T03:46:27.093Z,93.00
2024-02-19T03:48:56.308Z,93.20
2024-02-19T03:51:23.954Z,93.20
2024-02-19T03:53:50.951Z,93.30
2024-02-19T03:56:18.775Z,93.40
2024-02-19T03:58:45.735Z,93.20
2024-02-19T04:01:12.650Z,93.20
2024-02-19T04:03:39.674Z,93.00
2024-02-19T04:06:06.988Z,92.80
2024-02-19T04:08:34.445Z,92.90
2024-02-19T04:11:01.265Z,93.10
2024-02-19T04:13:28.157Z,93.30
2024-02-19T04:15:58.203Z,93.60
2024-02-19T04:18:25.319Z,93.50
2024-02-19T04:20:52.211Z,93.60
2024-02-19T04:23:18.961Z,93.60
2024-02-19T04:25:45.713Z,93.60
2024-02-19T04:28:12.937Z,93.40
2024-02-19T04:30:39.840Z,93.20
2024-02-19T04:33:07.092Z,93.00
2024-02-19T04:35:34.070Z,92.80
2024-02-19T04:38:00.919Z,92.70
2024-02-19T04:40:27.899Z,92.60
2024-02-19T04:42:54.781Z,92.60
2024-02-19T04:45:21.679Z,92.10
2024-02-19T04:47:48.583Z,91.50
2024-02-19T04:50:16.460Z,90.70
2024-02-19T04:52:43.340Z,90.60
2024-02-19T04:55:10.578Z,90.40
2024-02-19T04:57:37.625Z,90.60
2024-02-19T05:00:05.394Z,89.30
2024-02-19T05:02:32.764Z,89.50
2024-02-19T05:04:59.581Z,89.50
2024-02-19T05:07:26.461Z,89.30
2024-02-19T05:09:53.873Z,89.40
2024-02-19T05:12:20.699Z,89.60
2024-02-19T05:14:47.498Z,89.50
2024-02-19T05:17:14.312Z,89.60
2024-02-19T05:19:42.465Z,89.60
2024-02-19T05:22:09.991Z,89.00
2024-02-19T05:24:36.889Z,89.40
2024-02-19T05:27:03.907Z,88.90
2024-02-19T05:29:30.697Z,89.60
2024-02-19T05:31:57.460Z,89.30
2024-02-19T05:34:24.380Z,89.10
2024-02-19T05:36:51.276Z,89.40
2024-02-19T05:39:18.111Z,89.80
2024-02-19T05:41:44.960Z,90.00
2024-02-19T05:44:12.270Z,90.00
2024-02-19T05:46:39.173Z,90.30
2024-02-19T05:49:06.101Z,90.60
2024-02-19T05:51:33.042Z,90.60
2024-02-19T05:53:59.843Z,90.70
2024-02-19T05:56:27.854Z,90.90
2024-02-19T05:58:55.029Z,91.00
2024-02-19T06:01:22.188Z,91.10
2024-02-19T06:03:49.251Z,91.20
2024-02-19T06:06:16.217Z,91.30
2024-02-19T06:08:43.139Z,91.60
2024-02-19T06:11:10.043Z,91.70
2024-02-19T06:13:36.868Z,92.00
2024-02-19T06:16:04.007Z,92.30
2024-02-19T06:18:31.095Z,92.20
2024-02-19T06:20:58.236Z,92.10
2024-02-19T06:23:25.177Z,92.10
2024-02-19T06:25:52.039Z,92.20
2024-02-19T06:28:18.897Z,92.10
2024-02-19T06:30:45.802Z,92.30
2024-02-19T06:33:12.723Z,92.20
2024-02-19T06:35:39.760Z,92.30
2024-02-19T06:38:06.683Z,92.20
2024-02-19T06:40:33.834Z,92.20
2024-02-19T06:43:02.368Z,92.40
2024-02-19T06:45:29.383Z,92.40
2024-02-19T06:47:56.188Z,92.50
2024-02-19T06:50:23.011Z,92.40
2024-02-19T06:52:49.837Z,92.50
2024-02-19T06:55:17.632Z,92.60
2024-02-19T06:57:44.671Z,92.70
2024-02-19T07:00:12.638Z,92.70
2024-02-19T07:02:39.888Z,92.30
2024-02-19T07:05:08.163Z,92.10
2024-02-19T07:07:36.258Z,92.10
2024-02-19T07:10:04.459Z,91.90
2024-02-19T07:12:32.863Z,91.90
2024-02-19T07:15:00.053Z,91.70
2024-02-19T07:17:30.010Z,91.70
2024-02-19T07:19:57.028Z,91.90
2024-02-19T07:22:24.033Z,91.50
2024-02-19T07:24:53.258Z,91.50
2024-02-19T07:27:23.562Z,91.80
2024-02-19T07:29:51.781Z,91.80
2024-02-19T07:32:19.404Z,91.90
2024-02-19T07:34:46.366Z,90.80
2024-02-19T07:37:13.294Z,91.30
2024-02-19T07:39:42.850Z,91.40
2024-02-19T07:42:10.286Z,91.40
2024-02-19T07:44:37.405Z,91.20
2024-02-19T07:47:05.206Z,90.60
2024-02-19T07:49:32.575Z,90.30
2024-02-19T07:51:59.587Z,90.60
2024-02-19T07:54:26.373Z,90.70
2024-02-19T07:56:53.145Z,90.20
2024-02-19T07:59:21.032Z,90.10
2024-02-19T08:01:47.946Z,90.00
2024-02-19T08:04:15.037Z,89.40
2024-02-19T08:06:42.034Z,88.90
2024-02-19T08:09:08.915Z,89.10
2024-02-19T08:11:35.812Z,89.50
2024-02-19T08:14:02.750Z,89.30
2024-02-19T08:16:29.832Z,88.80
2024-02-19T08:18:56.871Z,88.50
2024-02-19T08:21:24.591Z,88.60
2024-02-19T08:23:51.379Z,88.80
2024-02-19T08:26:18.238Z,88.10
2024-02-19T08:28:45.079Z,88.40
2024-02-19T08:31:11.958Z,88.30
2024-02-19T08:33:38.880Z,88.80
2024-02-19T08:36:06.115Z,88.70
2024-02-19T08:38:32.989Z,87.80
2024-02-19T08:40:59.794Z,86.90
2024-02-19T08:43:27.089Z,86.80
2024-02-19T08:45:54.260Z,86.20
2024-02-19T08:48:21.200Z,86.90
2024-02-19T08:50:53.194Z,86.10
2024-02-19T08:53:20.685Z,85.30
2024-02-19T08:55:48.867Z,84.80
2024-02-19T08:58:15.707Z,84.60
2024-02-19T09:00:42.769Z,84.40
2024-02-19T09:03:09.645Z,84.40
2024-02-19T09:05:39.408Z,84.00
2024-02-19T09:08:06.795Z,84.10
2024-02-19T09:10:33.722Z,85.20
2024-02-19T09:13:01.970Z,84.20
2024-02-19T09:15:29.271Z,84.30
2024-02-19T09:17:56.651Z,83.50
2024-02-19T09:20:23.797Z,83.70
2024-02-19T09:22:50.772Z,83.60
2024-02-19T09:25:17.755Z,83.90
2024-02-19T09:27:44.615Z,83.20
2024-02-19T09:30:11.662Z,82.20
2024-02-19T09:32:38.569Z,83.70
2024-02-19T09:35:06.824Z,82.40
2024-02-19T09:37:33.956Z,82.80
2024-02-19T09:40:04.244Z,82.70
2024-02-19T09:42:32.577Z,82.00
2024-02-19T09:44:59.614Z,82.50
2024-02-19T09:47:28.351Z,82.40
2024-02-19T09:49:56.262Z,81.70
2024-02-19T09:52:29.442Z,82.80
2024-02-19T09:54:57.824Z,81.40
2024-02-19T09:57:26.578Z,81.10
2024-02-19T09:59:54.434Z,81.60
2024-02-19T10:02:21.241Z,80.40
2024-02-19T10:04:49.162Z,80.00
2024-02-19T10:07:19.713Z,81.40
2024-02-19T10:09:48.290Z,80.50
2024-02-19T10:12:15.085Z,81.20
2024-02-19T10:14:41.897Z,79.60
2024-02-19T10:17:08.771Z,79.40
2024-02-19T10:19:37.221Z,79.30
2024-02-19T10:22:05.083Z,78.80
2024-02-19T10:24:32.159Z,79.00
2024-02-19T10:26:59.424Z,78.60
2024-02-19T10:29:29.567Z,77.00
2024-02-19T10:31:56.523Z,77.30
2024-02-19T10:34:23.587Z,79.20
2024-02-19T10:36:51.468Z,79.70
2024-02-19T10:39:18.470Z,79.00
2024-02-19T10:41:45.417Z,78.20
2024-02-19T10:44:12.763Z,80.20
2024-02-19T10:46:40.899Z,80.90
2024-02-19T10:49:08.389Z,78.70
2024-02-19T10:51:36.562Z,78.70
2024-02-19T10:54:04.922Z,79.00
2024-02-19T10:56:39.610Z,77.50
2024-02-19T10:59:10.085Z,76.60
2024-02-19T11:01:49.018Z,78.90
2024-02-19T11:04:20.754Z,77.00
2024-02-19T11:06:54.058Z,76.40
2024-02-19T11:09:28.775Z,77.50
2024-02-19T11:11:59.165Z,78.10
2024-02-19T11:14:34.504Z,78.10
2024-02-19T11:17:02.969Z,79.20
2024-02-19T11:19:31.167Z,78.50
2024-02-19T11:22:06.882Z,78.80
2024-02-19T11:24:34.430Z,78.10
2024-02-19T11:27:03.833Z,77.90
2024-02-19T11:29:36.639Z,77.60
2024-02-19T11:32:10.943Z,77.60
2024-02-19T11:34:37.781Z,76.10
2024-02-19T11:37:13.386Z,76.50
2024-02-19T11:39:41.237Z,76.60
2024-02-19T11:42:11.647Z,75.90
2024-02-19T11:44:38.892Z,75.20
2024-02-19T11:47:05.882Z,76.30
2024-02-19T11:49:32.823Z,74.70
2024-02-19T11:52:07.769Z,76.30
2024-02-19T11:54:39.737Z,74.70
2024-02-19T11:57:08.670Z,75.40
2024-02-19T11:59:36.976Z,75.30
2024-02-19T12:02:05.874Z,74.60
2024-02-19T12:04:37.569Z,74.80
2024-02-19T12:07:05.783Z,76.70
2024-02-19T12:09:32.723Z,76.80
2024-02-19T12:11:59.990Z,76.30
2024-02-19T12:14:27.025Z,76.00
2024-02-19T12:16:55.519Z,75.80
2024-02-19T12:19:22.755Z,77.30
2024-02-19T12:21:50.568Z,77.40
2024-02-19T12:24:17.767Z,77.90
2024-02-19T12:26:48.209Z,78.10
2024-02-19T12:29:15.156Z,76.90
2024-02-19T12:31:42.109Z,76.40
2024-02-19T12:34:09.796Z,75.50
2024-02-19T12:36:37.180Z,75.20
2024-02-19T12:39:07.378Z,76.10
2024-02-19T12:41:35.195Z,72.80
2024-02-19T12:44:02.091Z,71.20
2024-02-19T12:46:29.405Z,68.90
2024-02-19T12:48:59.620Z,66.50
2024-02-19T12:51:32.723Z,66.90
2024-02-19T12:53:59.579Z,65.00
2024-02-19T12:56:26.725Z,66.10
2024-02-19T12:58:53.595Z,65.10
2024-02-19T13:01:28.142Z,60.60
2024-02-19T13:04:00.306Z,61.60
2024-02-19T13:06:27.412Z,60.20
2024-02-19T13:08:54.390Z,66.60
2024-02-19T13:11:21.430Z,66.30
2024-02-19T13:13:48.271Z,71.70
2024-02-19T13:16:15.952Z,71.70
2024-02-19T13:18:43.430Z,71.90
2024-02-19T13:21:10.691Z,73.40
2024-02-19T13:23:37.634Z,72.80
2024-02-19T13:26:04.920Z,73.70
2024-02-19T13:28:32.205Z,75.30
2024-02-19T13:30:59.574Z,75.20
2024-02-19T13:33:27.257Z,74.90
2024-02-19T13:35:54.320Z,75.70
2024-02-19T13:38:22.977Z,77.30
2024-02-19T13:40:50.781Z,77.00
2024-02-19T13:43:18.837Z,76.90
2024-02-19T13:45:57.995Z,77.90
2024-02-19T13:48:25.978Z,77.20
2024-02-19T13:50:58.874Z,75.90
2024-02-19T13:53:27.382Z,76.00
2024-02-19T13:55:58.630Z,75.10
2024-02-19T13:58:27.490Z,72.60
2024-02-19T14:00:55.478Z,72.70
2024-02-19T14:03:22.831Z,74.50
2024-02-19T14:05:50.447Z,74.30
2024-02-19T14:08:18.434Z,73.60
2024-02-19T14:10:46.464Z,72.20
2024-02-19T14:13:16.316Z,72.30
2024-02-19T14:15:43.539Z,72.80
2024-02-19T14:18:10.550Z,71.70
2024-02-19T14:20:37.356Z,72.30
2024-02-19T14:23:04.958Z,72.90
2024-02-19T14:25:34.483Z,72.90
2024-02-19T14:28:02.087Z,72.80
2024-02-19T14:30:29.384Z,74.60
2024-02-19T14:32:56.278Z,73.90
2024-02-19T14:35:26.567Z,75.00
2024-02-19T14:37:54.420Z,75.50
2024-02-19T14:40:21.644Z,76.20
2024-02-19T14:42:49.528Z,77.80
2024-02-19T14:45:17.154Z,77.50
2024-02-19T14:47:46.637Z,76.20
2024-02-19T14:50:15.013Z,77.30
2024-02-19T14:52:42.976Z,77.20
2024-02-19T14:55:12.794Z,78.10
2024-02-19T14:57:47.465Z,78.20
2024-02-19T15:00:22.625Z,77.20
2024-02-19T15:02:51.202Z,76.20
2024-02-19T15:05:18.686Z,78.00
2024-02-19T15:07:52.766Z,77.10
2024-02-19T15:10:25.295Z,76.70
2024-02-19T15:12:53.497Z,77.60
2024-02-19T15:15:21.635Z,77.40
2024-02-19T15:17:50.241Z,76.70
2024-02-19T15:20:18.598Z,76.60
2024-02-19T15:22:47.678Z,77.50
2024-02-19T15:25:14.771Z,77.70
2024-02-19T15:27:41.623Z,76.70
2024-02-19T15:30:09.091Z,77.10
2024-02-19T15:32:36.229Z,76.20
2024-02-19T15:35:06.789Z,77.30
2024-02-19T15:37:34.720Z,75.40
2024-02-19T15:40:02.040Z,75.80
2024-02-19T15:42:30.211Z,76.30
2024-02-19T15:44:58.156Z,77.00
2024-02-19T15:47:26.816Z,76.00
2024-02-19T15:49:58.181Z,77.70
2024-02-19T15:52:26.169Z,76.10
2024-02-19T15:54:53.332Z,77.30
2024-02-19T15:57:21.987Z,76.70
2024-02-19T15:59:48.890Z,77.00
2024-02-19T16:02:15.972Z,77.90
2024-02-19T16:04:43.233Z,77.90
2024-02-19T16:07:10.378Z,77.90
2024-02-19T16:09:37.448Z,78.10
2024-02-19T16:12:05.037Z,79.30
2024-02-19T16:14:31.874Z,79.20
2024-02-19T16:16:58.725Z,79.80
2024-02-19T16:19:26.398Z,79.00
2024-02-19T16:21:53.446Z,79.60
2024-02-19T16:24:20.264Z,80.10
2024-02-19T16:26:47.114Z,80.70
2024-02-19T16:29:14.400Z,81.20
2024-02-19T16:31:41.334Z,80.00
2024-02-19T16:34:08.258Z,80.70
2024-02-19T16:36:35.527Z,80.70
2024-02-19T16:39:02.439Z,80.60
2024-02-19T16:41:29.950Z,80.90
2024-02-19T16:43:56.908Z,81.20
2024-02-19T16:46:29.863Z,81.10
2024-02-19T16:48:58.567Z,81.00
2024-02-19T16:51:25.491Z,81.20
2024-02-19T16:53:55.482Z,81.10
2024-02-19T16:56:24.639Z,81.70
2024-02-19T16:58:51.692Z,81.90
2024-02-19T17:01:19.245Z,82.10
2024-02-19T17:03:47.539Z,82.00
2024-02-19T17:06:14.673Z,82.30
2024-02-19T17:08:42.106Z,82.30
2024-02-19T17:11:09.274Z,82.50
2024-02-19T17:13:37.637Z,82.60
2024-02-19T17:16:05.602Z,82.80
2024-02-19T17:18:33.034Z,83.20
2024-02-19T17:21:00.171Z,83.50
2024-02-19T17:23:27.006Z,83.90
2024-02-19T17:25:53.897Z,84.00
2024-02-19T17:28:22.749Z,83.90
2024-02-19T17:30:49.687Z,83.90
2024-02-19T17:33:16.650Z,84.00
2024-02-19T17:35:45.614Z,84.60
2024-02-19T17:38:12.976Z,84.40
2024-02-19T17:40:39.927Z,84.70
2024-02-19T17:43:08.146Z,84.80
2024-02-19T17:45:34.980Z,84.80
2024-02-19T17:48:01.966Z,84.80
2024-02-19T17:50:29.415Z,84.90
2024-02-19T17:52:56.202Z,85.10
2024-02-19T17:55:23.233Z,84.80
2024-02-19T17:57:50.107Z,84.80
2024-02-19T18:00:17.463Z,84.70
2024-02-19T18:02:45.900Z,84.70
2024-02-19T18:05:12.962Z,84.70
2024-02-19T18:07:39.822Z,84.70
2024-02-19T18:10:09.220Z,84.90
2024-02-19T18:12:36.410Z,85.10
2024-02-19T18:15:05.495Z,85.30
2024-02-19T18:17:33.362Z,85.10
2024-02-19T18:20:00.672Z,85.50
2024-02-19T18:22:27.719Z,85.50
2024-02-19T18:24:54.541Z,85.60
2024-02-19T18:27:21.893Z,85.70
2024-02-19T18:29:48.939Z,85.70
2024-02-19T18:32:18.603Z,85.50
2024-02-19T18:34:47.650Z,85.50
2024-02-19T18:37:14.880Z,85.60
2024-02-19T18:39:42.381Z,85.50
2024-02-19T18:42:11.335Z,84.90
2024-02-19T18:44:38.532Z,85.20
2024-02-19T18:47:06.076Z,85.00
2024-02-19T18:49:33.655Z,84.50
2024-02-19T18:52:02.503Z,84.20
2024-02-19T18:54:32.271Z,84.10
2024-02-19T18:57:04.612Z,83.90
2024-02-19T18:59:31.881Z,84.10
2024-02-19T19:02:02.108Z,83.80
2024-02-19T19:04:29.610Z,84.00
2024-02-19T19:06:56.800Z,84.40
2024-02-19T19:09:24.107Z,84.30
2024-02-19T19:11:51.223Z,84.40
2024-02-19T19:14:19.738Z,84.40
2024-02-19T19:16:47.318Z,84.10
2024-02-19T19:19:14.454Z,84.00
2024-02-19T19:21:43.653Z,84.30
2024-02-19T19:24:11.033Z,84.30
2024-02-19T19:26:37.897Z,84.00
2024-02-19T19:29:05.283Z,84.10
2024-02-19T19:31:33.082Z,83.80
2024-02-19T19:34:00.916Z,83.70
2024-02-19T19:36:28.085Z,83.60
2024-02-19T19:38:55.402Z,83.90
2024-02-19T19:41:22.935Z,84.20
2024-02-19T19:43:53.034Z,84.20
2024-02-19T19:46:20.364Z,84.40
2024-02-19T19:48:47.845Z,84.30
2024-02-19T19:51:15.027Z,84.40
2024-02-19T19:53:41.914Z,84.50
2024-02-19T19:56:10.573Z,84.20
2024-02-19T19:58:38.939Z,84.00
2024-02-19T20:01:10.100Z,84.00
2024-02-19T20:03:37.730Z,84.00
2024-02-19T20:06:05.387Z,84.10
2024-02-19T20:08:32.530Z,84.30
2024-02-19T20:10:59.961Z,84.50
2024-02-19T20:13:27.917Z,84.10
2024-02-19T20:15:55.816Z,84.30
2024-02-19T20:18:25.390Z,84.60
2024-02-19T20:20:52.407Z,84.60
2024-02-19T20:23:19.522Z,84.60
2024-02-19T20:25:46.754Z,84.60
2024-02-19T20:28:13.824Z,84.90
2024-02-19T20:30:40.775Z,85.00
2024-02-19T20:33:08.108Z,85.30
2024-02-19T20:35:35.434Z,85.30
2024-02-19T20:38:02.227Z,85.40
2024-02-19T20:40:30.726Z,85.40
2024-02-19T20:43:00.021Z,85.40
2024-02-19T20:45:28.397Z,85.40
2024-02-19T20:47:55.465Z,85.40
2024-02-19T20:50:22.538Z,85.50
2024-02-19T20:52:49.429Z,85.50
2024-02-19T20:55:16.404Z,85.30
2024-02-19T20:57:45.103Z,85.30
2024-02-19T21:00:12.937Z,85.40
2024-02-19T21:02:42.780Z,85.60
2024-02-19T21:05:12.047Z,85.50
2024-02-19T21:07:39.049Z,85.60
2024-02-19T21:10:06.388Z,85.60
2024-02-19T21:12:34.448Z,85.70
2024-02-19T21:15:01.321Z,85.80
2024-02-19T21:17:31.570Z,85.90
2024-02-19T21:20:00.034Z,86.10
2024-02-19T21:22:30.525Z,86.10
2024-02-19T21:24:58.808Z,86.10
2024-02-19T21:27:26.629Z,86.10
2024-02-19T21:29:53.947Z,86.20
2024-02-19T21:32:21.351Z,86.30
2024-02-19T21:34:48.618Z,86.00
2024-02-19T21:37:16.514Z,85.90
2024-02-19T21:39:43.853Z,86.00
2024-02-19T21:42:10.943Z,86.80
2024-02-19T21:44:37.869Z,87.30
2024-02-19T21:47:04.999Z,88.00
2024-02-19T21:49:31.892Z,88.10
2024-02-19T21:51:58.799Z,88.40
2024-02-19T21:54:25.691Z,88.40
2024-02-19T21:56:52.530Z,88.50
2024-02-19T21:59:19.392Z,88.80
2024-02-19T22:01:46.446Z,88.50
2024-02-19T22:04:13.607Z,88.70
2024-02-19T22:06:41.472Z,88.80
2024-02-19T22:09:08.358Z,89.00
2024-02-19T22:11:36.689Z,89.10
2024-02-19T22:14:04.048Z,89.30
2024-02-19T22:16:31.012Z,89.80
2024-02-19T22:18:58.008Z,89.90
2024-02-19T22:21:25.372Z,90.20
2024-02-19T22:23:53.202Z,90.70
2024-02-19T22:26:20.081Z,91.00
2024-02-19T22:28:46.962Z,91.10
2024-02-19T22:31:13.839Z,91.50
2024-02-19T22:33:40.714Z,91.70
2024-02-19T22:36:08.058Z,91.50
2024-02-19T22:38:34.903Z,91.60
2024-02-19T22:41:01.703Z,92.00
2024-02-19T22:43:28.826Z,92.40
2024-02-19T22:45:55.736Z,92.60
2024-02-19T22:48:22.685Z,92.80
2024-02-19T22:50:49.542Z,92.90
2024-02-19T22:53:18.273Z,92.90
2024-02-19T22:55:45.739Z,92.80
2024-02-19T22:58:17.786Z,92.70
2024-02-19T23:00:50.320Z,92.60
2024-02-19T23:03:17.421Z,92.30
2024-02-19T23:05:44.364Z,92.30
2024-02-19T23:08:11.237Z,92.30
2024-02-19T23:10:38.068Z,92.50
2024-02-19T23:13:05.147Z,92.60
2024-02-19T23:15:32.167Z,92.50
2024-02-19T23:18:01.061Z,92.50
2024-02-19T23:20:28.052Z,92.50
2024-02-19T23:22:54.943Z,92.40
2024-02-19T23:25:21.901Z,92.40
2024-02-19T23:27:49.248Z,92.40
2024-02-19T23:30:16.148Z,92.50
2024-02-19T23:32:43.158Z,92.40
2024-02-19T23:35:10.522Z,92.50
2024-02-19T23:37:38.119Z,92.60
2024-02-19T23:40:22.853Z,92.40
2024-02-19T23:42:49.847Z,92.20
2024-02-19T23:45:16.887Z,92.20
2024-02-19T23:47:44.133Z,92.30
2024-02-19T23:50:11.377Z,92.40
2024-02-19T23:52:41.713Z,92.60
2024-02-19T23:55:14.726Z,92.90
2024-02-19T23:57:41.656Z,93.00
